Time;durP1;ratioP1;P1;durP2;ratioP2;P2;SDS_P1;SDS_P2;PMS_P1;PMS_P2;Temp;Humidity;BMP_temperature;BMP_pressure;BME280_temperature;BME280_humidity;BME280_pressure;Samples;Min_cycle;Max_cycle;Signal;HPM_P1;HPM_P2
2023/03/13 00:02:10;;;;;;;1999.90;999.90;;;12.60;99.90;;;;;;5054564;28;20180;-69
2023/03/13 00:04:35;;;;;;;1999.90;999.90;;;12.60;99.90;;;;;;5054701;28;20249;-70
2023/03/13 00:07:01;;;;;;;1999.90;999.90;;;12.60;99.90;;;;;;5054589;28;20214;-70
2023/03/13 00:09:26;;;;;;;1999.90;999.90;;;12.60;99.90;;;;;;5054972;28;20593;-70
2023/03/13 00:11:52;;;;;;;1999.90;999.90;;;12.60;99.90;;;;;;5054458;28;20185;-70
2023/03/13 00:14:18;;;;;;;1999.90;999.90;;;12.50;99.90;;;;;;5054713;28;20203;-70
2023/03/13 00:16:43;;;;;;;1999.90;999.90;;;12.50;99.90;;;;;;5054431;28;20643;-70
2023/03/13 00:19:09;;;;;;;1999.90;999.90;;;12.50;99.90;;;;;;5054398;28;20224;-70
2023/03/13 00:21:39;;;;;;;1999.90;999.90;;;12.50;99.90;;;;;;5054565;28;20285;-70
2023/03/13 00:24:06;;;;;;;1999.90;999.90;;;12.40;99.90;;;;;;5054744;28;20870;-70
2023/03/13 00:26:32;;;;;;;1999.90;999.90;;;12.50;99.90;;;;;;5054243;28;20453;-70
2023/03/13 00:28:58;;;;;;;1999.90;999.90;;;12.40;99.90;;;;;;5054271;28;20450;-70
2023/03/13 00:31:29;;;;;;;1999.90;999.90;;;12.40;99.90;;;;;;5054123;28;20659;-70
2023/03/13 00:33:58;;;;;;;1999.90;999.90;;;12.30;99.90;;;;;;5053486;28;20409;-70
2023/03/13 00:36:30;;;;;;;1999.90;999.90;;;12.30;99.90;;;;;;5054220;28;20774;-70
2023/03/13 00:38:56;;;;;;;1999.90;999.90;;;12.30;99.90;;;;;;5054047;28;20423;-70
2023/03/13 00:41:25;;;;;;;1999.90;999.90;;;12.30;99.90;;;;;;5053983;28;20473;-71
2023/03/13 00:43:51;;;;;;;1999.90;999.90;;;12.30;99.90;;;;;;5053768;28;20395;-69
2023/03/13 00:46:20;;;;;;;1999.90;999.90;;;12.30;99.90;;;;;;5053808;28;20413;-69
2023/03/13 00:48:46;;;;;;;1999.90;999.90;;;12.30;99.90;;;;;;5053906;28;20459;-70
2023/03/13 00:51:12;;;;;;;1999.90;999.90;;;12.30;99.90;;;;;;5053865;28;20501;-71
2023/03/13 00:53:38;;;;;;;1999.90;999.90;;;12.30;99.90;;;;;;5053501;28;20588;-70
2023/03/13 00:56:06;;;;;;;1999.90;999.90;;;12.30;99.90;;;;;;5053737;28;20489;-70
2023/03/13 00:58:35;;;;;;;1999.90;999.90;;;12.30;99.90;;;;;;5053670;28;20181;-70
2023/03/13 01:01:26;;;;;;;1999.90;999.90;;;12.30;99.90;;;;;;5053569;28;20447;-70
2023/03/13 01:03:54;;;;;;;1999.90;999.90;;;12.30;99.90;;;;;;5053504;28;20407;-69
2023/03/13 01:06:22;;;;;;;1999.90;999.90;;;12.20;99.90;;;;;;5053614;28;20402;-70
2023/03/13 01:08:48;;;;;;;1999.90;999.90;;;12.20;99.90;;;;;;5053249;28;20442;-69
2023/03/13 01:11:22;;;;;;;1999.90;999.90;;;12.20;99.90;;;;;;5053478;28;20414;-70
2023/03/13 01:13:49;;;;;;;1999.90;999.90;;;12.20;99.90;;;;;;5053396;28;20404;-69
2023/03/13 01:16:20;;;;;;;1999.90;999.90;;;12.20;99.90;;;;;;5053250;28;20402;-69
2023/03/13 01:18:49;;;;;;;1999.90;999.90;;;12.20;99.90;;;;;;5053342;28;20434;-69
2023/03/13 01:21:15;;;;;;;1999.90;999.90;;;12.30;99.90;;;;;;5053138;28;20487;-70
2023/03/13 01:23:41;;;;;;;1999.90;999.90;;;12.20;99.90;;;;;;5053021;28;20864;-71
2023/03/13 01:26:08;;;;;;;1999.90;999.90;;;12.20;99.90;;;;;;5053111;28;20444;-71
2023/03/13 01:28:34;;;;;;;1999.90;999.90;;;12.20;99.90;;;;;;5053090;28;20449;-69
2023/03/13 01:31:08;;;;;;;1999.90;999.90;;;12.10;99.90;;;;;;5053170;28;20421;-69
2023/03/13 01:33:34;;;;;;;1999.90;999.90;;;12.10;99.90;;;;;;5052890;28;20402;-69
2023/03/13 01:36:00;;;;;;;1999.90;999.90;;;12.10;99.90;;;;;;5052897;28;20906;-70
2023/03/13 01:38:26;;;;;;;1999.90;999.90;;;12.10;99.90;;;;;;5052858;28;20203;-69
2023/03/13 01:40:51;;;;;;;1999.90;999.90;;;12.10;99.90;;;;;;5052787;28;20800;-70
2023/03/13 01:43:23;;;;;;;1999.90;999.90;;;12.10;99.90;;;;;;5052764;28;20256;-70
2023/03/13 01:46:04;;;;;;;1999.90;999.90;;;12.10;99.90;;;;;;5051917;28;20251;-71
2023/03/13 01:48:50;;;;;;;1999.90;999.90;;;12.10;99.90;;;;;;5052652;28;20421;-69
2023/03/13 01:51:42;;;;;;;1999.90;999.90;;;12.10;99.90;;;;;;5035405;28;20415;-70
2023/03/13 01:54:13;;;;;;;1999.90;999.90;;;12.10;99.90;;;;;;5052683;28;20547;-70
2023/03/13 01:57:12;;;;;;;1999.90;999.90;;;12.10;99.90;;;;;;5052552;28;20410;-69
2023/03/13 02:00:00;;;;;;;1999.90;999.90;;;12.10;99.90;;;;;;5044742;28;20473;-69
2023/03/13 02:02:28;;;;;;;1999.90;999.90;;;12.10;99.90;;;;;;5052348;28;20943;-69
2023/03/13 02:04:59;;;;;;;1999.90;999.90;;;12.10;99.90;;;;;;5052505;28;20398;-70
2023/03/13 02:07:39;;;;;;;1999.90;999.90;;;12.10;99.90;;;;;;5052406;28;20880;-70
2023/03/13 02:10:06;;;;;;;1999.90;999.90;;;12.10;99.90;;;;;;5052261;28;20458;-70
2023/03/13 02:12:34;;;;;;;1999.90;999.90;;;12.10;99.90;;;;;;5052134;28;20460;-70
2023/03/13 02:15:04;;;;;;;1999.90;999.90;;;12.10;99.90;;;;;;5052422;28;21122;-70
2023/03/13 02:17:32;;;;;;;1999.90;999.90;;;12.20;99.90;;;;;;5052101;28;20477;-69
2023/03/13 02:19:57;;;;;;;1999.90;999.90;;;12.20;99.90;;;;;;5052114;28;20422;-70
2023/03/13 02:22:48;;;;;;;1999.90;999.90;;;12.20;99.90;;;;;;5051919;28;20612;-70
2023/03/13 02:25:25;;;;;;;1999.90;999.90;;;12.10;99.90;;;;;;5052197;28;20222;-70
2023/03/13 02:27:59;;;;;;;1999.90;999.90;;;12.10;99.90;;;;;;5052130;28;20402;-70
2023/03/13 02:30:25;;;;;;;1999.90;999.90;;;12.10;99.90;;;;;;5052029;28;20426;-69
2023/03/13 02:32:51;;;;;;;1999.90;999.90;;;12.00;99.90;;;;;;5052022;28;20804;-69
2023/03/13 02:35:19;;;;;;;1999.90;999.90;;;12.00;99.90;;;;;;5052061;28;20551;-70
2023/03/13 02:37:49;;;;;;;1999.90;999.90;;;11.90;99.90;;;;;;5051866;28;20189;-70
2023/03/13 02:40:20;;;;;;;1999.90;999.90;;;11.90;99.90;;;;;;5051827;28;20825;-70
2023/03/13 02:42:48;;;;;;;1999.90;999.90;;;11.90;99.90;;;;;;5051807;28;20524;-70
2023/03/13 02:45:15;;;;;;;1999.90;999.90;;;11.90;99.90;;;;;;5052057;28;20426;-69
2023/03/13 02:47:40;;;;;;;1999.90;999.90;;;11.90;99.90;;;;;;5051740;28;20399;-69
2023/03/13 02:50:06;;;;;;;1999.90;999.90;;;11.90;99.90;;;;;;5051804;28;20561;-69
2023/03/13 02:52:37;;;;;;;1999.90;999.90;;;11.90;99.90;;;;;;5051623;28;20172;-69
2023/03/13 02:55:27;;;;;;;1999.90;999.90;;;11.90;99.90;;;;;;5051700;28;20417;-70
2023/03/13 02:57:52;;;;;;;1999.90;999.90;;;11.90;99.90;;;;;;5053999;28;21093;-69
2023/03/13 03:00:19;;;;;;;1999.90;999.90;;;11.90;99.90;;;;;;5055949;28;20549;-70
2023/03/13 03:02:45;;;;;;;1999.90;999.90;;;11.90;99.90;;;;;;5055810;28;20226;-70
2023/03/13 03:05:13;;;;;;;1999.90;999.90;;;11.90;99.90;;;;;;5055920;28;20414;-70
2023/03/13 03:07:38;;;;;;;1999.90;999.90;;;11.90;99.90;;;;;;5055592;28;20221;-70
2023/03/13 03:10:05;;;;;;;1999.90;999.90;;;12.00;99.90;;;;;;5055632;28;20935;-70
2023/03/13 03:12:30;;;;;;;1999.90;999.90;;;12.00;99.90;;;;;;5055500;28;20649;-70
2023/03/13 03:14:56;;;;;;;1999.90;999.90;;;12.00;99.90;;;;;;5055742;28;20406;-70
2023/03/13 03:17:21;;;;;;;1999.90;999.90;;;12.10;99.90;;;;;;5055517;28;20180;-71
2023/03/13 03:19:47;;;;;;;1999.90;999.90;;;12.20;99.90;;;;;;5055422;28;20191;-71
2023/03/13 03:22:13;;;;;;;1999.90;999.90;;;12.20;99.90;;;;;;5055247;28;20193;-70
2023/03/13 03:24:38;;;;;;;1999.90;999.90;;;12.30;99.90;;;;;;5055502;28;20685;-70
2023/03/13 03:27:04;;;;;;;1999.90;999.90;;;12.40;99.90;;;;;;5055356;28;20179;-70
2023/03/13 03:29:29;;;;;;;1999.90;999.90;;;12.40;99.90;;;;;;5055325;28;20268;-70
2023/03/13 03:31:55;;;;;;;1999.90;999.90;;;12.50;99.90;;;;;;5055228;28;20176;-69
2023/03/13 03:34:21;;;;;;;1999.90;999.90;;;12.60;99.90;;;;;;5055400;28;20709;-69
2023/03/13 03:36:47;;;;;;;1999.90;999.90;;;12.60;99.90;;;;;;5055028;28;20199;-69
2023/03/13 03:39:12;;;;;;;1999.90;999.90;;;12.70;99.90;;;;;;5055175;28;20276;-70
2023/03/13 03:41:38;;;;;;;1999.90;999.90;;;12.70;99.90;;;;;;5055078;28;20457;-69
2023/03/13 03:44:04;;;;;;;1999.90;999.90;;;12.80;99.90;;;;;;5055263;28;20518;-69
2023/03/13 03:46:30;;;;;;;1999.90;999.90;;;12.90;99.90;;;;;;5054992;28;20215;-70
2023/03/13 03:48:55;;;;;;;1999.90;999.90;;;12.90;99.90;;;;;;5055108;28;20416;-70
2023/03/13 03:51:21;;;;;;;1999.90;999.90;;;13.00;99.90;;;;;;5054961;28;20584;-69
2023/03/13 03:53:47;;;;;;;1999.90;999.90;;;13.00;99.90;;;;;;5054815;28;20245;-70
2023/03/13 03:56:13;;;;;;;1999.90;999.90;;;13.00;99.90;;;;;;5054898;28;20493;-70
2023/03/13 03:58:39;;;;;;;1999.90;999.90;;;13.00;99.90;;;;;;5054838;28;20209;-69
2023/03/13 04:01:04;;;;;;;1999.90;999.90;;;13.10;99.90;;;;;;5054805;28;20193;-70
2023/03/13 04:03:30;;;;;;;1999.90;999.90;;;13.10;99.90;;;;;;5054679;28;20464;-69
2023/03/13 04:05:56;;;;;;;1999.90;999.90;;;13.10;99.90;;;;;;5054541;28;20476;-69
2023/03/13 04:08:21;;;;;;;1999.90;999.90;;;13.20;99.90;;;;;;5053790;28;20185;-69
2023/03/13 04:10:47;;;;;;;1999.90;999.90;;;13.20;99.90;;;;;;5054384;28;20586;-70
2023/03/13 04:13:13;;;;;;;1999.90;999.90;;;13.20;99.90;;;;;;5054455;28;20402;-70
2023/03/13 04:15:39;;;;;;;1999.90;999.90;;;13.20;99.90;;;;;;5054536;28;20180;-69
2023/03/13 04:18:05;;;;;;;1999.90;999.90;;;13.10;99.90;;;;;;5054516;28;20548;-69
2023/03/13 04:20:32;;;;;;;1999.90;999.90;;;13.20;99.90;;;;;;5054256;28;20462;-69
2023/03/13 04:22:57;;;;;;;1999.90;999.90;;;13.10;99.90;;;;;;5054437;28;20451;-69
2023/03/13 04:25:23;;;;;;;1999.90;999.90;;;13.20;99.90;;;;;;5054382;28;20400;-70
2023/03/13 04:27:49;;;;;;;1999.90;999.90;;;13.20;99.90;;;;;;5054343;28;20695;-69
2023/03/13 04:30:15;;;;;;;1999.90;999.90;;;13.20;99.90;;;;;;5054244;28;20208;-69
2023/03/13 04:32:40;;;;;;;1999.90;999.90;;;13.20;99.90;;;;;;5053939;28;20770;-69
2023/03/13 04:35:06;;;;;;;1999.90;999.90;;;13.20;99.90;;;;;;5054127;28;20180;-70
2023/03/13 04:37:32;;;;;;;1999.90;999.90;;;13.30;99.90;;;;;;5054047;28;20169;-71
2023/03/13 04:39:57;;;;;;;1999.90;999.90;;;13.30;99.90;;;;;;5053936;28;20921;-70
2023/03/13 04:42:23;;;;;;;1999.90;999.90;;;13.30;99.90;;;;;;5053867;28;20252;-70
2023/03/13 04:44:49;;;;;;;1999.90;999.90;;;13.30;99.90;;;;;;5054067;28;20623;-70
2023/03/13 04:47:15;;;;;;;1999.90;999.90;;;13.40;99.90;;;;;;5053884;28;20396;-71
2023/03/13 04:49:40;;;;;;;1999.90;999.90;;;13.50;99.90;;;;;;5053786;28;20195;-70
2023/03/13 04:52:06;;;;;;;1999.90;999.90;;;13.50;99.90;;;;;;5053723;28;20229;-70
2023/03/13 04:54:32;;;;;;;1999.90;999.90;;;13.50;99.90;;;;;;5053829;28;20173;-70
2023/03/13 04:56:57;;;;;;;1999.90;999.90;;;13.50;99.90;;;;;;5053787;28;20955;-70
2023/03/13 04:59:23;;;;;;;1999.90;999.90;;;13.60;99.90;;;;;;5053715;28;20218;-70
2023/03/13 05:01:49;;;;;;;1999.90;999.90;;;13.60;99.90;;;;;;5053451;28;20201;-70
2023/03/13 05:04:14;;;;;;;1999.90;999.90;;;13.60;99.90;;;;;;5053558;28;20166;-70
2023/03/13 05:06:40;;;;;;;1999.90;999.90;;;13.60;99.90;;;;;;5053683;28;20514;-70
2023/03/13 05:09:06;;;;;;;1999.90;999.90;;;13.70;99.90;;;;;;5053408;28;20203;-70
2023/03/13 05:11:32;;;;;;;1999.90;999.90;;;13.70;99.90;;;;;;5053570;28;20180;-69
2023/03/13 05:13:57;;;;;;;1999.90;999.90;;;13.80;99.90;;;;;;5053421;28;20534;-69
2023/03/13 05:16:23;;;;;;;1999.90;999.90;;;13.80;99.90;;;;;;5053318;28;20416;-69
2023/03/13 05:18:49;;;;;;;1999.90;999.90;;;13.90;99.90;;;;;;5053315;28;20205;-71
2023/03/13 05:21:14;;;;;;;1999.90;999.90;;;13.90;99.90;;;;;;5053087;28;20657;-70
2023/03/13 05:23:40;;;;;;;1999.90;999.90;;;13.90;99.90;;;;;;5053121;28;20171;-70
2023/03/13 05:26:05;;;;;;;1999.90;999.90;;;13.90;99.90;;;;;;5053292;28;20214;-69
2023/03/13 05:28:31;;;;;;;1999.90;999.90;;;14.00;99.90;;;;;;5053121;28;20191;-70
2023/03/13 05:30:56;;;;;;;1999.90;999.90;;;14.00;99.90;;;;;;5053273;28;20674;-70
2023/03/13 05:33:22;;;;;;;1999.90;999.90;;;14.00;99.90;;;;;;5052919;28;20697;-69
2023/03/13 05:35:48;;;;;;;1999.90;999.90;;;14.00;99.90;;;;;;5053176;28;20171;-70
2023/03/13 05:38:14;;;;;;;1999.90;999.90;;;14.00;99.90;;;;;;5052882;28;20255;-69
2023/03/13 05:40:40;;;;;;;1999.90;999.90;;;14.10;99.90;;;;;;5052955;28;20456;-69
2023/03/13 05:43:05;;;;;;;1999.90;999.90;;;14.10;99.90;;;;;;5053037;28;20437;-68
2023/03/13 05:45:31;;;;;;;1999.90;999.90;;;14.00;99.90;;;;;;5052861;28;20181;-70
2023/03/13 05:47:57;;;;;;;1999.90;999.90;;;14.00;99.90;;;;;;5052612;28;20674;-69
2023/03/13 05:50:23;;;;;;;1999.90;999.90;;;14.00;99.90;;;;;;5052909;28;20242;-69
2023/03/13 05:52:49;;;;;;;1999.90;999.90;;;14.00;99.90;;;;;;5052702;28;20839;-69
2023/03/13 05:55:15;;;;;;;1999.90;999.90;;;14.00;99.90;;;;;;5052838;28;20444;-69
2023/03/13 05:57:44;;;;;;;1999.90;999.90;;;14.00;99.90;;;;;;5052628;28;20752;-69
2023/03/13 06:00:10;;;;;;;1999.90;999.90;;;14.00;99.90;;;;;;5052478;28;20279;-69
2023/03/13 06:02:36;;;;;;;1999.90;999.90;;;14.10;99.90;;;;;;5052364;28;20406;-69
2023/03/13 06:05:02;;;;;;;1999.90;999.90;;;14.10;99.90;;;;;;5052511;28;20413;-70
2023/03/13 06:07:27;;;;;;;1999.90;999.90;;;14.10;99.90;;;;;;5052553;28;20181;-70
2023/03/13 06:09:53;;;;;;;1999.90;999.90;;;14.10;99.90;;;;;;5052735;28;20505;-70
2023/03/13 06:12:18;;;;;;;1999.90;999.90;;;14.20;99.90;;;;;;5052208;28;20255;-69
2023/03/13 06:14:44;;;;;;;1999.90;999.90;;;14.20;99.90;;;;;;5052303;28;20170;-69
2023/03/13 06:17:09;;;;;;;1999.90;999.90;;;14.20;99.90;;;;;;5052147;28;20274;-69
2023/03/13 06:19:35;;;;;;;1999.90;999.90;;;14.20;99.90;;;;;;5052204;28;20262;-68
2023/03/13 06:22:01;;;;;;;1999.90;999.90;;;14.20;99.90;;;;;;5052028;28;20201;-68
2023/03/13 06:24:26;;;;;;;1999.90;999.90;;;14.20;99.90;;;;;;5052223;28;20251;-69
2023/03/13 06:26:52;;;;;;;1999.90;999.90;;;14.20;99.90;;;;;;5052118;28;20173;-69
2023/03/13 06:29:18;;;;;;;1999.90;999.90;;;14.30;99.90;;;;;;5052112;28;20673;-69
2023/03/13 06:31:43;;;;;;;1999.90;999.90;;;14.30;99.90;;;;;;5051280;28;20187;-69
2023/03/13 06:34:11;;;;;;;1999.90;999.90;;;14.30;99.90;;;;;;5052057;28;20175;-69
2023/03/13 06:36:36;;;;;;;1999.90;999.90;;;14.30;99.90;;;;;;5052092;28;20172;-69
2023/03/13 06:39:02;;;;;;;1999.90;999.90;;;14.20;99.90;;;;;;5051815;28;20443;-69
2023/03/13 06:41:28;;;;;;;1999.90;999.90;;;14.30;99.90;;;;;;5051896;28;20667;-69
2023/03/13 06:43:54;;;;;;;1999.90;999.90;;;14.30;99.90;;;;;;5051789;28;20506;-69
2023/03/13 06:46:22;;;;;;;1999.90;999.90;;;14.30;99.90;;;;;;5051712;28;20171;-69
2023/03/13 06:48:48;;;;;;;1999.90;999.90;;;14.30;99.90;;;;;;5051663;28;20187;-70
2023/03/13 06:51:15;;;;;;;1999.90;999.90;;;14.40;99.90;;;;;;5051842;28;20417;-69
2023/03/13 06:53:41;;;;;;;1999.90;999.90;;;14.40;99.90;;;;;;5051667;28;20407;-69
2023/03/13 06:56:08;;;;;;;1999.90;999.90;;;14.50;99.90;;;;;;5033374;28;20446;-69
2023/03/13 06:58:33;;;;;;;1999.90;999.90;;;14.50;99.90;;;;;;5031777;28;20445;-69
2023/03/13 07:01:14;;;;;;;1999.90;999.90;;;14.50;99.90;;;;;;5031682;28;20456;-69
2023/03/13 07:03:40;;;;;;;1999.90;999.90;;;14.50;99.90;;;;;;5031620;28;20835;-69
2023/03/13 07:06:07;;;;;;;1999.90;999.90;;;14.60;99.90;;;;;;5031718;28;20908;-69
2023/03/13 07:08:34;;;;;;;1999.90;999.90;;;14.50;99.90;;;;;;5031586;28;20461;-68
2023/03/13 07:11:02;;;;;;;1999.90;999.90;;;14.60;99.90;;;;;;5031878;28;20462;-69
2023/03/13 07:13:28;;;;;;;1999.90;999.90;;;14.50;99.90;;;;;;5031492;28;20859;-68
2023/03/13 07:15:54;;;;;;;1999.90;999.90;;;14.60;99.90;;;;;;5031561;28;20504;-68
2023/03/13 07:18:21;;;;;;;1999.90;999.90;;;14.30;99.90;;;;;;5031796;28;20788;-69
2023/03/13 07:20:54;;;;;;;1999.90;999.90;;;14.50;99.90;;;;;;5031698;28;20464;-68
2023/03/13 07:23:21;;;;;;;1999.90;999.90;;;14.60;99.90;;;;;;5031489;28;20416;-68
2023/03/13 07:25:54;;;;;;;1999.90;999.90;;;14.60;99.90;;;;;;5031634;28;20398;-68
2023/03/13 07:28:21;;;;;;;1999.90;999.90;;;14.50;99.90;;;;;;5031481;28;20413;-68
2023/03/13 07:30:48;;;;;;;1999.90;999.90;;;14.60;99.90;;;;;;5031494;28;20528;-70
2023/03/13 07:33:14;;;;;;;1999.90;999.90;;;14.60;99.90;;;;;;5031286;28;20411;-69
2023/03/13 07:35:39;;;;;;;1999.90;999.90;;;14.60;99.90;;;;;;5031516;28;20422;-69
2023/03/13 07:38:05;;;;;;;1999.90;999.90;;;14.70;99.90;;;;;;5031445;28;20461;-69
2023/03/13 07:40:30;;;;;;;1999.90;999.90;;;14.70;99.90;;;;;;5031343;28;20695;-69
2023/03/13 07:42:56;;;;;;;1999.90;999.90;;;14.70;99.90;;;;;;5031838;28;20256;-69
2023/03/13 07:45:21;;;;;;;1999.90;999.90;;;14.70;99.90;;;;;;5035268;28;20167;-69
2023/03/13 07:47:47;;;;;;;1999.90;999.90;;;14.70;99.90;;;;;;5035282;28;20184;-69
2023/03/13 07:50:12;;;;;;;1999.90;999.90;;;14.80;99.90;;;;;;5035102;28;20193;-69
2023/03/13 07:52:38;;;;;;;1999.90;999.90;;;14.70;99.90;;;;;;5034900;28;20535;-69
2023/03/13 07:55:04;;;;;;;1999.90;999.90;;;14.80;99.90;;;;;;5034999;28;20166;-69
2023/03/13 07:57:30;;;;;;;1999.90;999.90;;;14.70;99.90;;;;;;5034871;28;20168;-69
2023/03/13 07:59:55;;;;;;;1999.90;999.90;;;14.70;99.90;;;;;;5034868;28;21016;-69
2023/03/13 08:02:21;;;;;;;1999.90;999.90;;;14.70;99.90;;;;;;5034695;28;20192;-70
2023/03/13 08:04:50;;;;;;;1999.90;999.90;;;14.70;99.90;;;;;;5034896;28;20513;-69
2023/03/13 08:07:15;;;;;;;1999.90;999.90;;;14.80;99.90;;;;;;5034734;28;20668;-69
2023/03/13 08:09:41;;;;;;;1999.90;999.90;;;14.80;99.90;;;;;;5034602;28;20462;-70
2023/03/13 08:12:07;;;;;;;1999.90;999.90;;;14.80;99.90;;;;;;5034744;28;20173;-69
2023/03/13 08:14:32;;;;;;;1999.90;999.90;;;14.80;99.90;;;;;;5034623;28;20169;-70
2023/03/13 08:16:58;;;;;;;1999.90;999.90;;;14.80;99.90;;;;;;5034555;28;20418;-69
2023/03/13 08:19:23;;;;;;;1999.90;999.90;;;14.80;99.90;;;;;;5034543;28;20183;-69
2023/03/13 08:21:49;;;;;;;1999.90;999.90;;;14.90;99.90;;;;;;5034267;28;20206;-69
2023/03/13 08:24:15;;;;;;;1999.90;999.90;;;14.80;99.90;;;;;;5034547;28;20689;-70
2023/03/13 08:26:41;;;;;;;1999.90;999.90;;;14.80;99.90;;;;;;5034289;28;20175;-69
2023/03/13 08:29:10;;;;;;;1999.90;999.90;;;14.70;99.90;;;;;;5034508;28;20273;-70
2023/03/13 08:31:41;;;;;;;1999.90;999.90;;;14.60;99.90;;;;;;5034408;28;20417;-69
2023/03/13 08:34:06;;;;;;;1999.90;999.90;;;14.60;99.90;;;;;;5034381;28;20499;-68
2023/03/13 08:36:36;;;;;;;1999.90;999.90;;;14.70;99.90;;;;;;5034204;28;20491;-68
2023/03/13 08:39:05;;;;;;;1999.90;999.90;;;14.70;99.90;;;;;;5034099;28;20192;-68
2023/03/13 08:41:36;;;;;;;1999.90;999.90;;;14.70;99.90;;;;;;5034190;28;20452;-69
2023/03/13 08:44:03;;;;;;;1999.90;999.90;;;14.70;99.90;;;;;;5033837;28;20500;-69
2023/03/13 08:46:30;;;;;;;1999.90;999.90;;;14.60;99.90;;;;;;5034009;28;20461;-69
2023/03/13 08:48:56;;;;;;;1999.90;999.90;;;14.70;99.90;;;;;;5033976;28;20423;-69
2023/03/13 08:51:24;;;;;;;1999.90;999.90;;;14.70;99.90;;;;;;5033892;28;20410;-70
2023/03/13 08:53:50;;;;;;;1999.90;999.90;;;14.60;99.90;;;;;;5033801;28;20410;-69
2023/03/13 08:56:18;;;;;;;1999.90;999.90;;;14.70;99.90;;;;;;5033271;28;20412;-68
2023/03/13 08:58:47;;;;;;;1999.90;999.90;;;14.70;99.90;;;;;;5033719;28;20453;-69
2023/03/13 09:01:13;;;;;;;1999.90;999.90;;;14.60;99.90;;;;;;5033724;28;20486;-68
2023/03/13 09:03:40;;;;;;;1999.90;999.90;;;14.60;99.90;;;;;;5033668;28;20908;-68
2023/03/13 09:06:07;;;;;;;1999.90;999.90;;;14.70;99.90;;;;;;5033568;28;20405;-70
2023/03/13 09:08:33;;;;;;;1999.90;999.90;;;14.70;99.90;;;;;;5033494;28;20442;-70
2023/03/13 09:11:01;;;;;;;1999.90;999.90;;;14.70;99.90;;;;;;5033601;28;20406;-69
2023/03/13 09:13:28;;;;;;;1999.90;999.90;;;14.70;99.90;;;;;;5033314;28;20416;-69
2023/03/13 09:15:55;;;;;;;1999.90;999.90;;;14.70;99.90;;;;;;5033499;28;20461;-69
2023/03/13 09:18:21;;;;;;;1999.90;999.90;;;14.80;99.90;;;;;;5033385;28;20443;-69
2023/03/13 09:20:46;;;;;;;1999.90;999.90;;;14.70;99.90;;;;;;5033403;28;20488;-69
2023/03/13 09:23:12;;;;;;;1999.90;999.90;;;14.70;99.90;;;;;;5033252;28;20542;-70
2023/03/13 09:25:38;;;;;;;1999.90;999.90;;;14.70;99.90;;;;;;5033398;28;20175;-70
2023/03/13 09:28:04;;;;;;;1999.90;999.90;;;14.80;99.90;;;;;;5033214;28;20172;-70
2023/03/13 09:30:29;;;;;;;1999.90;999.90;;;14.80;99.90;;;;;;5033199;28;21055;-70
2023/03/13 09:32:55;;;;;;;1999.90;999.90;;;14.90;99.90;;;;;;5032865;28;20497;-70
2023/03/13 09:35:21;;;;;;;1999.90;999.90;;;14.90;99.90;;;;;;5033136;28;20621;-70
2023/03/13 09:37:46;;;;;;;1999.90;999.90;;;15.00;99.90;;;;;;5032948;28;20165;-70
2023/03/13 09:40:18;;;;;;;1999.90;999.90;;;15.00;99.90;;;;;;5032742;28;20934;-69
2023/03/13 09:42:49;;;;;;;1999.90;999.90;;;15.00;99.90;;;;;;5032783;28;20664;-68
2023/03/13 09:45:37;;;;;;;1999.90;999.90;;;15.00;99.90;;;;;;5032991;28;20416;-68
2023/03/13 09:48:16;;;;;;;1999.90;999.90;;;15.00;99.90;;;;;;5032773;28;20415;-68
2023/03/13 09:50:57;;;;;;;1999.90;999.90;;;15.00;99.90;;;;;;5032861;28;20417;-68
2023/03/13 09:53:33;;;;;;;1999.90;999.90;;;15.00;99.90;;;;;;5032730;28;20409;-68
2023/03/13 09:56:01;;;;;;;1999.90;999.90;;;15.10;99.90;;;;;;5032642;28;20402;-69
2023/03/13 09:58:29;;;;;;;1999.90;999.90;;;15.20;99.90;;;;;;5032683;28;20406;-69
2023/03/13 10:01:02;;;;;;;1999.90;999.90;;;15.30;99.90;;;;;;5032689;28;20540;-70
2023/03/13 10:03:50;;;;;;;1999.90;999.90;;;15.30;99.90;;;;;;5032488;28;20407;-70
2023/03/13 10:06:19;;;;;;;1999.90;999.90;;;15.50;99.90;;;;;;5032017;28;20406;-69
2023/03/13 10:08:45;;;;;;;1999.90;999.90;;;15.70;99.90;;;;;;5032169;28;20475;-69
2023/03/13 10:11:36;;;;;;;1999.90;999.90;;;15.80;99.90;;;;;;5032489;28;20437;-69
2023/03/13 10:14:09;;;;;;;1999.90;999.90;;;15.90;99.90;;;;;;5032301;28;20167;-69
2023/03/13 10:16:42;;;;;;;1999.90;999.90;;;16.00;99.90;;;;;;5032463;28;20944;-70
2023/03/13 10:19:14;;;;;;;1999.90;999.90;;;16.00;99.90;;;;;;5032483;28;20565;-69
2023/03/13 10:21:43;;;;;;;1999.90;999.90;;;16.10;99.90;;;;;;5032064;28;20447;-68
2023/03/13 10:24:32;;;;;;;1999.90;999.90;;;16.10;99.90;;;;;;5032317;28;20422;-70
2023/03/13 10:26:58;;;;;;;1999.90;999.90;;;16.20;99.90;;;;;;5032165;28;20401;-69
2023/03/13 10:29:29;;;;;;;1999.90;999.90;;;16.10;99.90;;;;;;5032092;28;20434;-70
2023/03/13 10:31:58;;;;;;;1999.90;999.90;;;16.20;99.90;;;;;;5032200;28;20184;-70
2023/03/13 10:34:26;;;;;;;1999.90;999.90;;;16.20;99.90;;;;;;5032174;28;20457;-69
2023/03/13 10:36:58;;;;;;;1999.90;999.90;;;16.30;99.90;;;;;;5032184;28;20820;-69
2023/03/13 10:39:27;;;;;;;1999.90;999.90;;;16.30;99.90;;;;;;5032047;28;20452;-69
2023/03/13 10:42:12;;;;;;;1999.90;999.90;;;16.40;99.90;;;;;;5031669;28;20457;-68
2023/03/13 10:44:38;;;;;;;1999.90;999.90;;;16.50;99.90;;;;;;5032119;28;20810;-68
2023/03/13 10:47:03;;;;;;;1999.90;999.90;;;16.60;99.90;;;;;;5031860;28;20401;-68
2023/03/13 10:49:30;;;;;;;1999.90;999.90;;;16.70;99.90;;;;;;5031953;28;20188;-68
2023/03/13 10:52:02;;;;;;;1999.90;999.90;;;16.80;99.90;;;;;;5031775;28;20820;-68
2023/03/13 10:54:30;;;;;;;1999.90;999.90;;;16.90;99.90;;;;;;5031781;28;20417;-69
2023/03/13 10:57:15;;;;;;;1999.90;999.90;;;16.90;99.90;;;;;;5031947;28;20422;-68
2023/03/13 10:59:45;;;;;;;1999.90;999.90;;;16.90;99.90;;;;;;5031816;28;20419;-69
2023/03/13 11:02:37;;;;;;;1999.90;999.90;;;16.90;99.90;;;;;;5031644;28;20460;-70
2023/03/13 11:05:24;;;;;;;1999.90;999.90;;;17.00;99.90;;;;;;5031799;28;20495;-70
2023/03/13 11:07:51;;;;;;;1999.90;999.90;;;17.10;99.90;;;;;;5031846;28;20403;-68
2023/03/13 11:10:20;;;;;;;1999.90;999.90;;;17.20;99.90;;;;;;5031590;28;20442;-69
2023/03/13 11:12:47;;;;;;;1999.90;999.90;;;17.10;99.90;;;;;;5031642;28;20411;-69
2023/03/13 11:15:24;;;;;;;1999.90;999.90;;;17.00;99.90;;;;;;5031703;28;20758;-69
2023/03/13 11:18:05;;;;;;;1999.90;999.90;;;16.90;99.90;;;;;;5032134;28;20398;-70
2023/03/13 11:20:34;;;;;;;1999.90;999.90;;;17.00;99.90;;;;;;5035702;28;20808;-70
2023/03/13 11:23:21;;;;;;;1999.90;999.90;;;17.00;99.90;;;;;;5035602;28;20406;-70
2023/03/13 11:26:16;;;;;;;1999.90;999.90;;;17.10;99.90;;;;;;5035492;28;20439;-70
2023/03/13 11:28:57;;;;;;;1999.90;999.90;;;17.20;99.90;;;;;;5035566;28;20426;-70
2023/03/13 11:31:46;;;;;;;1999.90;999.90;;;17.30;99.90;;;;;;5035529;28;20896;-70
2023/03/13 11:34:25;;;;;;;1999.90;999.90;;;17.30;99.90;;;;;;5035681;28;20402;-70
2023/03/13 11:37:08;;;;;;;1999.90;999.90;;;17.30;99.90;;;;;;5035372;28;20501;-70
2023/03/13 11:39:49;;;;;;;1999.90;999.90;;;17.40;99.90;;;;;;5035299;28;20809;-69
2023/03/13 11:42:18;;;;;;;1999.90;999.90;;;17.70;99.90;;;;;;5035031;28;20492;-69
2023/03/13 11:45:00;;;;;;;1999.90;999.90;;;17.90;99.90;;;;;;5035286;28;20402;-69
2023/03/13 11:47:36;;;;;;;1999.90;999.90;;;18.30;99.90;;;;;;5035184;28;20491;-69
2023/03/13 11:50:24;;;;;;;1999.90;999.90;;;18.60;99.90;;;;;;5035162;28;20510;-69
2023/03/13 11:53:27;;;;;;;1999.90;999.90;;;18.90;99.90;;;;;;5034922;28;20426;-69
2023/03/13 11:56:04;;;;;;;1999.90;999.90;;;19.00;99.90;;;;;;5035061;28;20394;-68
2023/03/13 11:59:02;;;;;;;1999.90;999.90;;;18.70;99.90;;;;;;5034914;28;20442;-69
2023/03/13 12:01:39;;;;;;;1999.90;999.90;;;18.30;99.90;;;;;;4996797;28;20470;-70
2023/03/13 12:04:21;;;;;;;1999.90;999.90;;;17.90;99.90;;;;;;5034847;28;20395;-70
2023/03/13 12:06:58;;;;;;;1999.90;999.90;;;17.70;99.90;;;;;;5034724;28;20483;-69
2023/03/13 12:09:27;;;;;;;1999.90;999.90;;;18.00;99.90;;;;;;5034548;28;20449;-69